createdAt,value
2023-02-07T00:01:22.189Z,102546.81
2023-02-07T00:03:52.224Z,102551.66
2023-02-07T00:06:24.714Z,102543.94
2023-02-07T00:08:54.683Z,102544.59
2023-02-07T00:11:26.601Z,102536.84
2023-02-07T00:13:57.862Z,102554.66
2023-02-07T00:16:26.205Z,102560.09
2023-02-07T00:18:58.362Z,102564.50
2023-02-07T00:21:30.423Z,102562.34
2023-02-07T00:24:01.001Z,102578.00
2023-02-07T00:26:29.734Z,102577.88
2023-02-07T00:28:58.589Z,102586.13
2023-02-07T00:31:28.911Z,102564.59
2023-02-07T00:33:58.992Z,102531.94
2023-02-07T00:36:28.820Z,102568.03
2023-02-07T00:39:01.960Z,102551.44
2023-02-07T00:41:31.334Z,102564.72
2023-02-07T00:44:00.792Z,102563.00
2023-02-07T00:46:29.162Z,102570.03
2023-02-07T00:48:57.180Z,102563.25
2023-02-07T00:51:25.917Z,102562.50
2023-02-07T00:53:54.843Z,102557.34
2023-02-07T00:56:25.641Z,102554.09
2023-02-07T00:58:54.314Z,102553.16
2023-02-07T01:01:27.066Z,102549.50
2023-02-07T01:03:56.168Z,102553.63
2023-02-07T01:06:25.751Z,102536.41
2023-02-07T01:08:58.738Z,102545.47
2023-02-07T01:11:30.151Z,102546.53
2023-02-07T01:14:00.573Z,102543.16
2023-02-07T01:16:32.068Z,102550.44
2023-02-07T01:19:04.857Z,102550.47
2023-02-07T01:21:33.146Z,102557.31
2023-02-07T01:24:01.712Z,102557.41
2023-02-07T01:26:33.370Z,102556.44
2023-02-07T01:29:02.538Z,102555.88
2023-02-07T01:31:32.072Z,102551.19
2023-02-07T01:34:04.193Z,102560.59
2023-02-07T01:36:33.852Z,102541.72
2023-02-07T01:39:04.087Z,102546.22
2023-02-07T01:41:33.868Z,102548.56
2023-02-07T01:44:07.497Z,102550.06
2023-02-07T01:46:37.170Z,102553.41
2023-02-07T01:49:11.342Z,102556.53
2023-02-07T01:51:44.114Z,102544.97
2023-02-07T01:54:17.220Z,102541.22
2023-02-07T01:56:55.135Z,102544.66
2023-02-07T01:59:27.004Z,102560.63
2023-02-07T02:01:59.296Z,102562.03
2023-02-07T02:04:27.180Z,102556.38
2023-02-07T02:06:57.797Z,102551.31
2023-02-07T02:09:26.033Z,102559.56
2023-02-07T02:12:15.947Z,102559.56
2023-02-07T02:15:05.941Z,102547.88
2023-02-07T02:17:45.480Z,102550.91
2023-02-07T02:21:11.103Z,102556.97
2023-02-07T02:23:53.213Z,102553.56
2023-02-07T02:26:46.288Z,102556.78
2023-02-07T02:29:59.956Z,102570.13
2023-02-07T02:33:13.102Z,102569.31
2023-02-07T02:35:49.206Z,102561.59
2023-02-07T02:38:27.799Z,102564.38
2023-02-07T02:41:12.071Z,102566.03
2023-02-07T02:43:46.826Z,102564.66
2023-02-07T02:46:20.879Z,102561.28
2023-02-07T02:48:53.997Z,102565.22
2023-02-07T02:51:22.667Z,102548.41
2023-02-07T02:53:55.117Z,102561.88
2023-02-07T02:56:55.288Z,102568.53
2023-02-07T02:59:42.329Z,102564.91
2023-02-07T03:02:22.953Z,102561.44
2023-02-07T03:05:13.157Z,102570.22
2023-02-07T03:07:59.472Z,102562.00
2023-02-07T03:10:37.090Z,102556.00
2023-02-07T03:13:17.748Z,102552.72
2023-02-07T03:16:00.846Z,102551.19
2023-02-07T03:18:35.505Z,102532.91
2023-02-07T03:21:09.780Z,102521.66
2023-02-07T03:23:40.299Z,102513.59
2023-02-07T03:26:26.648Z,102525.75
2023-02-07T03:28:59.405Z,102533.59
2023-02-07T03:31:31.917Z,102537.72
2023-02-07T03:34:07.109Z,102545.72
2023-02-07T03:36:41.746Z,102539.81
2023-02-07T03:39:10.724Z,102541.03
2023-02-07T03:41:43.298Z,102547.81
2023-02-07T03:44:14.417Z,102542.69
2023-02-07T03:46:43.810Z,102547.81
2023-02-07T03:49:14.770Z,102549.63
2023-02-07T03:51:45.614Z,102548.84
2023-02-07T03:54:14.422Z,102539.03
2023-02-07T03:56:42.986Z,102549.34
2023-02-07T03:59:11.468Z,102550.69
2023-02-07T04:01:42.340Z,102544.56
2023-02-07T04:04:11.484Z,102544.09
2023-02-07T04:06:40.229Z,102548.84
2023-02-07T04:09:11.946Z,102558.50
2023-02-07T04:11:40.438Z,102562.69
2023-02-07T04:14:08.243Z,102549.63
2023-02-07T04:16:37.772Z,102536.56
2023-02-07T04:19:08.272Z,102539.44
2023-02-07T04:21:37.837Z,102535.91
2023-02-07T04:24:06.347Z,102536.44
2023-02-07T04:26:35.450Z,102542.94
2023-02-07T04:29:04.597Z,102528.72
2023-02-07T04:31:33.238Z,102542.63
2023-02-07T04:34:01.410Z,102556.84
2023-02-07T04:36:31.391Z,102561.53
2023-02-07T04:38:59.893Z,102569.63
2023-02-07T04:41:28.537Z,102550.19
2023-02-07T04:43:58.446Z,102564.78
2023-02-07T04:46:28.500Z,102559.63
2023-02-07T04:48:57.186Z,102554.69
2023-02-07T04:51:28.007Z,102551.06
2023-02-07T04:53:58.927Z,102558.31
2023-02-07T04:56:27.904Z,102562.09
2023-02-07T04:58:58.861Z,102555.81
2023-02-07T05:01:27.698Z,102555.06
2023-02-07T05:03:55.571Z,102560.56
2023-02-07T05:06:24.764Z,102560.66
2023-02-07T05:08:54.962Z,102571.78
2023-02-07T05:11:22.774Z,102572.63
2023-02-07T05:13:52.204Z,102576.50
2023-02-07T05:16:22.919Z,102586.53
2023-02-07T05:18:51.663Z,102580.59
2023-02-07T05:21:22.045Z,102577.50
2023-02-07T05:23:53.887Z,102581.28
2023-02-07T05:26:25.395Z,102573.44
2023-02-07T05:28:53.552Z,102582.44
2023-02-07T05:31:44.478Z,102552.25
2023-02-07T05:34:14.581Z,102589.66
2023-02-07T05:36:44.918Z,102584.03
2023-02-07T05:39:14.897Z,102596.44
2023-02-07T05:41:43.482Z,102591.63
2023-02-07T05:44:12.674Z,102591.47
2023-02-07T05:46:44.607Z,102579.84
2023-02-07T05:49:15.615Z,102589.25
2023-02-07T05:51:51.648Z,102600.06
2023-02-07T05:54:21.316Z,102594.13
2023-02-07T05:56:49.787Z,102596.91
2023-02-07T05:59:19.257Z,102576.13
2023-02-07T06:01:53.279Z,102589.16
2023-02-07T06:04:22.375Z,102586.66
2023-02-07T06:06:53.188Z,102592.00
2023-02-07T06:09:21.768Z,102594.91
2023-02-07T06:11:50.443Z,102597.81
2023-02-07T06:14:20.389Z,102578.41
2023-02-07T06:16:48.910Z,102604.94
2023-02-07T06:19:20.131Z,102608.03
2023-02-07T06:21:49.314Z,102607.84
2023-02-07T06:24:17.557Z,102608.47
2023-02-07T06:26:47.080Z,102620.78
2023-02-07T06:29:18.349Z,102594.41
2023-02-07T06:31:47.246Z,102616.84
2023-02-07T06:34:16.887Z,102605.31
2023-02-07T06:36:46.177Z,102627.19
2023-02-07T06:39:14.167Z,102631.72
2023-02-07T06:41:42.184Z,102635.84
2023-02-07T06:44:10.782Z,102638.59
2023-02-07T06:46:44.338Z,102632.50
2023-02-07T06:49:14.794Z,102634.72
2023-02-07T06:51:43.694Z,102642.28
2023-02-07T06:54:17.591Z,102626.81
2023-02-07T06:56:47.794Z,102654.38
2023-02-07T06:59:16.463Z,102655.69
2023-02-07T07:01:44.936Z,102668.25
2023-02-07T07:04:12.816Z,102679.03
2023-02-07T07:06:41.444Z,102670.16
2023-02-07T07:09:09.489Z,102687.44
2023-02-07T07:11:44.026Z,102683.56
2023-02-07T07:14:14.150Z,102684.25
2023-02-07T07:16:43.617Z,102671.31
2023-02-07T07:19:13.532Z,102690.06
2023-02-07T07:21:44.022Z,102695.91
2023-02-07T07:24:12.302Z,102704.19
2023-02-07T07:26:49.481Z,102709.00
2023-02-07T07:29:19.774Z,102704.78
2023-02-07T07:31:48.140Z,102707.44
2023-02-07T07:34:18.187Z,102708.22
2023-02-07T07:36:46.554Z,102666.19
2023-02-07T07:39:17.853Z,102705.72
2023-02-07T07:41:47.540Z,102703.47
2023-02-07T07:44:17.251Z,102709.56
2023-02-07T07:46:46.230Z,102713.34
2023-02-07T07:49:14.738Z,102718.78
2023-02-07T07:51:49.618Z,102703.56
2023-02-07T07:54:19.258Z,102717.13
2023-02-07T07:56:49.052Z,102720.38
2023-02-07T07:59:24.007Z,102720.47
2023-02-07T08:01:52.994Z,102718.53
2023-02-07T08:04:21.071Z,102718.91
2023-02-07T08:06:49.921Z,102724.53
2023-02-07T08:09:20.522Z,102721.13
2023-02-07T08:11:51.234Z,102721.19
2023-02-07T08:14:19.889Z,102713.75
2023-02-07T08:16:49.729Z,102720.56
2023-02-07T08:19:17.898Z,102700.78
2023-02-07T08:21:46.273Z,102685.03
2023-02-07T08:24:16.804Z,102709.97
2023-02-07T08:26:46.732Z,102698.50
2023-02-07T08:29:18.940Z,102717.47
2023-02-07T08:31:48.083Z,102719.13
2023-02-07T08:34:18.633Z,102718.72
2023-02-07T08:36:48.120Z,102719.41
2023-02-07T08:39:19.173Z,102723.31
2023-02-07T08:41:49.013Z,102729.59
2023-02-07T08:44:20.172Z,102730.47
2023-02-07T08:46:49.828Z,102720.63
2023-02-07T08:49:20.106Z,102714.47
2023-02-07T08:51:50.697Z,102721.69
2023-02-07T08:54:19.380Z,102727.66
2023-02-07T08:56:49.565Z,102725.09
2023-02-07T08:59:21.097Z,102726.16
2023-02-07T09:01:50.138Z,102716.59
2023-02-07T09:04:22.430Z,102715.97
2023-02-07T09:06:53.855Z,102723.06
2023-02-07T09:09:22.254Z,102728.13
2023-02-07T09:11:52.400Z,102731.38
2023-02-07T09:14:22.285Z,102714.41
2023-02-07T09:16:51.210Z,102717.06
2023-02-07T09:19:20.005Z,102692.13
2023-02-07T09:21:49.106Z,102702.81
2023-02-07T09:24:26.106Z,102703.53
2023-02-07T09:26:54.835Z,102714.69
2023-02-07T09:29:26.067Z,102701.50
2023-02-07T09:31:55.908Z,102708.38
2023-02-07T09:34:24.442Z,102702.06
2023-02-07T09:36:53.482Z,102688.50
2023-02-07T09:39:22.332Z,102690.63
2023-02-07T09:42:07.848Z,102691.06
2023-02-07T09:44:51.011Z,102671.28
2023-02-07T09:47:23.305Z,102688.25
2023-02-07T09:49:56.003Z,102685.72
2023-02-07T09:52:30.912Z,102685.16
2023-02-07T09:55:06.687Z,102688.97
2023-02-07T09:57:44.430Z,102693.25
2023-02-07T10:00:32.184Z,102695.09
2023-02-07T10:03:18.708Z,102698.16
2023-02-07T10:05:50.244Z,102703.53
2023-02-07T10:08:28.265Z,102691.81
2023-02-07T10:11:15.742Z,102701.44
2023-02-07T10:14:02.179Z,102700.59
2023-02-07T10:17:10.586Z,102702.03
2023-02-07T10:19:57.954Z,102694.22
2023-02-07T10:22:33.973Z,102689.72
2023-02-07T10:25:16.612Z,102694.31
2023-02-07T10:28:00.222Z,102681.91
2023-02-07T10:30:34.136Z,102688.13
2023-02-07T10:33:21.046Z,102672.81
2023-02-07T10:35:49.690Z,102667.00
2023-02-07T10:38:29.345Z,102673.25
2023-02-07T10:41:04.503Z,102677.19
2023-02-07T10:43:39.831Z,102677.09
2023-02-07T10:46:15.249Z,102664.34
2023-02-07T10:48:48.554Z,102674.00
2023-02-07T10:51:32.859Z,102662.06
2023-02-07T10:54:08.945Z,102635.81
2023-02-07T10:56:43.536Z,102670.13
2023-02-07T10:59:45.963Z,102658.75
2023-02-07T11:02:53.428Z,102673.09
2023-02-07T11:05:41.101Z,102669.47
2023-02-07T11:08:25.934Z,102661.63
2023-02-07T11:10:58.710Z,102659.53
2023-02-07T11:13:32.857Z,102666.56
2023-02-07T11:16:07.082Z,102664.75
2023-02-07T11:18:45.808Z,102655.88
2023-02-07T11:21:27.472Z,102654.38
2023-02-07T11:23:59.912Z,102657.84
2023-02-07T11:26:29.220Z,102661.25
2023-02-07T11:29:07.895Z,102643.59
2023-02-07T11:31:39.397Z,102652.75
2023-02-07T11:34:30.998Z,102641.50
2023-02-07T11:37:21.085Z,102650.16
2023-02-07T11:39:50.069Z,102631.97
2023-02-07T11:42:21.385Z,102648.78
2023-02-07T11:44:52.034Z,102648.03
2023-02-07T11:47:25.994Z,102635.31
2023-02-07T11:49:59.410Z,102642.84
2023-02-07T11:52:29.884Z,102642.63
2023-02-07T11:55:01.563Z,102647.97
2023-02-07T11:57:34.517Z,102635.94
2023-02-07T12:00:07.973Z,102641.53
2023-02-07T12:02:39.283Z,102643.06
2023-02-07T12:05:21.406Z,102631.13
2023-02-07T12:07:54.286Z,102640.44
2023-02-07T12:10:25.277Z,102638.72
2023-02-07T12:13:00.906Z,102631.75
2023-02-07T12:15:37.298Z,102623.03
2023-02-07T12:18:13.482Z,102624.41
2023-02-07T12:20:47.911Z,102616.44
2023-02-07T12:26:20.895Z,102613.50
2023-02-07T12:29:11.287Z,102607.53
2023-02-07T12:32:11.777Z,102601.31
2023-02-07T12:34:49.033Z,102609.03
2023-02-07T12:37:27.478Z,102607.91
2023-02-07T12:40:07.579Z,102597.19
2023-02-07T12:42:41.527Z,102596.44
2023-02-07T12:45:17.239Z,102595.97
2023-02-07T12:47:53.881Z,102597.94
2023-02-07T12:50:31.169Z,102590.44
2023-02-07T12:53:19.465Z,102580.88
2023-02-07T12:56:04.878Z,102571.38
2023-02-07T12:58:47.875Z,102581.41
2023-02-07T13:01:25.815Z,102579.72
2023-02-07T13:04:31.035Z,102570.88
2023-02-07T13:07:19.056Z,102575.25
2023-02-07T13:10:02.865Z,102568.56
2023-02-07T13:12:42.638Z,102563.81
2023-02-07T13:15:22.474Z,102561.13
2023-02-07T13:18:02.262Z,102535.84
2023-02-07T13:20:46.498Z,102552.78
2023-02-07T13:23:23.295Z,102572.34
2023-02-07T13:25:58.422Z,102531.59
2023-02-07T13:28:37.006Z,102562.78
2023-02-07T13:31:08.723Z,102541.38
2023-02-07T13:33:42.599Z,102563.53
2023-02-07T13:36:25.303Z,102558.16
2023-02-07T13:39:19.984Z,102554.56
2023-02-07T13:41:58.610Z,102548.69
2023-02-07T13:44:39.250Z,102567.00
2023-02-07T13:47:20.807Z,102566.03
2023-02-07T13:49:58.608Z,102550.72
2023-02-07T13:52:35.220Z,102558.94
2023-02-07T13:55:19.096Z,102561.91
2023-02-07T13:58:05.954Z,102547.50
2023-02-07T14:00:59.643Z,102545.75
2023-02-07T14:03:33.356Z,102546.59
2023-02-07T14:06:23.664Z,102545.66
2023-02-07T14:09:06.775Z,102546.03
2023-02-07T14:11:44.129Z,102547.16
2023-02-07T14:14:18.156Z,102537.53
2023-02-07T14:16:59.947Z,102556.81
2023-02-07T14:19:51.314Z,102557.72
2023-02-07T14:22:23.140Z,102548.66
2023-02-07T14:25:16.211Z,102559.88
2023-02-07T14:28:21.008Z,102552.69
2023-02-07T14:31:14.690Z,102545.31
2023-02-07T14:34:15.174Z,102540.19
2023-02-07T14:36:44.711Z,102543.34
2023-02-07T14:39:31.281Z,102543.72
2023-02-07T14:42:15.014Z,102546.06
2023-02-07T14:44:48.135Z,102526.03
2023-02-07T14:47:25.698Z,102532.22
2023-02-07T14:50:00.035Z,102539.84
2023-02-07T14:52:31.285Z,102546.84
2023-02-07T14:55:06.318Z,102542.25
2023-02-07T14:57:52.344Z,102541.44
2023-02-07T15:00:31.620Z,102530.19
2023-02-07T15:03:05.099Z,102528.59
2023-02-07T15:05:37.180Z,102530.81
2023-02-07T15:08:20.002Z,102548.16
2023-02-07T15:10:57.059Z,102548.56
2023-02-07T15:13:29.985Z,102536.66
2023-02-07T15:16:03.109Z,102518.84
2023-02-07T15:18:39.238Z,102546.44
2023-02-07T15:21:20.727Z,102553.41
2023-02-07T15:23:55.997Z,102549.22
2023-02-07T15:26:27.786Z,102547.91
2023-02-07T15:29:02.963Z,102547.78
2023-02-07T15:31:32.698Z,102539.34
2023-02-07T15:34:04.187Z,102536.75
2023-02-07T15:36:37.767Z,102544.34
2023-02-07T15:39:26.636Z,102542.44
2023-02-07T15:42:05.204Z,102528.75
2023-02-07T15:44:35.646Z,102547.38
2023-02-07T15:47:10.195Z,102537.84
2023-02-07T15:49:41.694Z,102527.97
2023-02-07T15:52:21.879Z,102538.34
2023-02-07T15:54:52.754Z,102547.53
2023-02-07T15:57:28.368Z,102544.03
2023-02-07T16:00:01.737Z,102544.13
2023-02-07T16:02:33.590Z,102553.94
2023-02-07T16:05:12.449Z,102522.75
2023-02-07T16:07:48.810Z,102541.97
2023-02-07T16:10:20.532Z,102555.78
2023-02-07T16:12:54.265Z,102550.63
2023-02-07T16:15:28.185Z,102548.78
2023-02-07T16:17:57.143Z,102549.25
2023-02-07T16:20:26.624Z,102554.84
2023-02-07T16:22:59.279Z,102553.78
2023-02-07T16:25:35.166Z,102569.31
2023-02-07T16:28:10.093Z,102561.38
2023-02-07T16:30:41.587Z,102565.34
2023-02-07T16:33:14.277Z,102555.72
2023-02-07T16:35:44.821Z,102569.75
2023-02-07T16:38:14.830Z,102560.22
2023-02-07T16:40:48.091Z,102560.56
2023-02-07T16:43:40.084Z,102573.31
2023-02-07T16:46:10.706Z,102576.41
2023-02-07T16:48:39.112Z,102557.94
2023-02-07T16:51:08.000Z,102570.81
2023-02-07T16:53:45.774Z,102587.16
2023-02-07T16:56:20.252Z,102570.16
2023-02-07T16:58:49.148Z,102583.88
2023-02-07T17:01:20.321Z,102584.84
2023-02-07T17:03:51.049Z,102587.50
2023-02-07T17:06:20.966Z,102580.44
2023-02-07T17:08:52.083Z,102586.75
2023-02-07T17:11:25.580Z,102580.53
2023-02-07T17:13:56.394Z,102584.63
2023-02-07T17:16:26.176Z,102594.09
2023-02-07T17:18:55.519Z,102590.09
2023-02-07T17:21:25.721Z,102547.84
2023-02-07T17:26:57.320Z,102591.78
2023-02-07T17:29:27.032Z,102595.88
2023-02-07T17:31:56.042Z,102595.88
2023-02-07T17:34:26.890Z,102592.63
2023-02-07T17:36:55.254Z,102601.19
2023-02-07T17:39:29.804Z,102606.03
2023-02-07T17:41:59.764Z,102598.09
2023-02-07T17:44:29.705Z,102599.50
2023-02-07T17:47:00.178Z,102610.22
2023-02-07T17:49:32.064Z,102618.78
2023-02-07T17:52:01.452Z,102610.75
2023-02-07T17:54:43.215Z,102604.53
2023-02-07T17:57:18.496Z,102583.47
2023-02-07T17:59:48.715Z,102612.69
2023-02-07T18:02:19.472Z,102609.91
2023-02-07T18:04:49.698Z,102607.84
2023-02-07T18:07:18.150Z,102593.59
2023-02-07T18:09:51.389Z,102610.72
2023-02-07T18:12:22.384Z,102595.91
2023-02-07T18:14:54.024Z,102609.19
2023-02-07T18:17:23.457Z,102605.63
2023-02-07T18:19:57.099Z,102602.19
2023-02-07T18:22:27.415Z,102594.47
2023-02-07T18:25:01.906Z,102601.84
2023-02-07T18:27:33.207Z,102610.94
2023-02-07T18:30:03.566Z,102608.66
2023-02-07T18:32:35.760Z,102607.50
2023-02-07T18:35:05.987Z,102614.47
2023-02-07T18:37:36.309Z,102595.88
2023-02-07T18:40:16.004Z,102611.13
2023-02-07T18:42:45.174Z,102609.16
2023-02-07T18:45:19.604Z,102604.13
2023-02-07T18:47:54.488Z,102610.06
2023-02-07T18:50:23.685Z,102606.81
2023-02-07T18:52:53.074Z,102622.31
2023-02-07T18:55:23.865Z,102621.66
2023-02-07T18:57:52.135Z,102598.50
2023-02-07T19:00:23.904Z,102629.66
2023-02-07T19:02:55.170Z,102621.19
2023-02-07T19:05:24.426Z,102635.00
2023-02-07T19:07:55.189Z,102627.66
2023-02-07T19:10:30.170Z,102621.28
2023-02-07T19:12:58.757Z,102629.56
2023-02-07T19:15:27.826Z,102635.00
2023-02-07T19:17:58.159Z,102615.94
2023-02-07T19:20:28.342Z,102626.34
2023-02-07T19:22:56.474Z,102627.84
2023-02-07T19:25:27.045Z,102630.66
2023-02-07T19:27:55.561Z,102631.44
2023-02-07T19:30:29.206Z,102634.50
2023-02-07T19:32:57.564Z,102632.59
2023-02-07T19:35:28.426Z,102624.09
2023-02-07T19:38:00.389Z,102641.56
2023-02-07T19:40:30.514Z,102643.59
2023-02-07T19:43:00.363Z,102635.53
2023-02-07T19:45:31.513Z,102642.81
2023-02-07T19:48:02.236Z,102639.84
2023-02-07T19:50:32.173Z,102640.03
2023-02-07T19:53:03.807Z,102651.56
2023-02-07T19:55:39.099Z,102646.59
2023-02-07T19:58:08.160Z,102644.13
2023-02-07T20:00:39.667Z,102650.41
2023-02-07T20:03:10.989Z,102658.50
2023-02-07T20:05:48.701Z,102649.75
2023-02-07T20:08:22.751Z,102654.22
2023-02-07T20:10:55.101Z,102651.44
2023-02-07T20:13:24.614Z,102654.59
2023-02-07T20:15:52.623Z,102651.91
2023-02-07T20:18:21.973Z,102649.06
2023-02-07T20:20:51.274Z,102636.63
2023-02-07T20:23:19.432Z,102647.84
2023-02-07T20:25:51.476Z,102654.72
2023-02-07T20:28:22.099Z,102641.47
2023-02-07T20:30:52.516Z,102653.16
2023-02-07T20:33:23.432Z,102644.59
2023-02-07T20:35:51.919Z,102648.53
2023-02-07T20:38:23.011Z,102665.63
2023-02-07T20:40:51.032Z,102667.53
2023-02-07T20:43:24.345Z,102618.28
2023-02-07T20:45:52.808Z,102655.59
2023-02-07T20:48:22.384Z,102655.22
2023-02-07T20:50:59.217Z,102658.63
2023-02-07T20:53:53.654Z,102664.44
2023-02-07T20:56:39.578Z,102661.84
2023-02-07T20:59:16.817Z,102671.03
2023-02-07T21:01:51.743Z,102659.28
2023-02-07T21:04:19.968Z,102654.47
2023-02-07T21:06:49.165Z,102658.56
2023-02-07T21:09:18.730Z,102656.31
2023-02-07T21:11:48.970Z,102665.84
2023-02-07T21:14:22.313Z,102639.44
2023-02-07T21:16:51.193Z,102652.44
2023-02-07T21:19:19.938Z,102660.59
2023-02-07T21:21:48.065Z,102658.84
2023-02-07T21:24:19.124Z,102656.50
2023-02-07T21:26:49.191Z,102656.19
2023-02-07T21:29:20.726Z,102660.81
2023-02-07T21:31:49.685Z,102669.09
2023-02-07T21:34:22.104Z,102664.63
2023-02-07T21:36:51.363Z,102662.41
2023-02-07T21:39:20.818Z,102625.03
2023-02-07T21:41:51.643Z,102654.06
2023-02-07T21:44:27.108Z,102650.28
2023-02-07T21:46:57.161Z,102644.94
2023-02-07T21:49:25.706Z,102657.06
2023-02-07T21:51:54.027Z,102622.94
2023-02-07T21:54:23.578Z,102635.75
2023-02-07T21:56:52.853Z,102646.00
2023-02-07T21:59:23.734Z,102654.16
2023-02-07T22:01:54.384Z,102663.63
2023-02-07T22:04:22.604Z,102658.22
2023-02-07T22:06:53.332Z,102658.63
2023-02-07T22:09:23.677Z,102651.06
2023-02-07T22:11:54.456Z,102646.97
2023-02-07T22:14:25.021Z,102639.47
2023-02-07T22:16:55.512Z,102526.09
2023-02-07T22:19:28.015Z,102636.91
2023-02-07T22:21:59.094Z,102611.91
2023-02-07T22:24:32.545Z,102628.88
2023-02-07T22:27:02.867Z,102632.84
2023-02-07T22:29:36.362Z,102651.41
2023-02-07T22:32:04.716Z,102639.56
2023-02-07T22:34:33.286Z,102636.66
2023-02-07T22:37:02.962Z,102625.97
2023-02-07T22:39:35.289Z,102617.47
2023-02-07T22:42:04.746Z,102621.50
2023-02-07T22:44:35.877Z,102600.56
2023-02-07T22:47:05.991Z,102614.91
2023-02-07T22:49:37.669Z,102621.84
2023-02-07T22:52:08.991Z,102614.41
2023-02-07T22:54:37.986Z,102600.03
2023-02-07T22:57:15.588Z,102629.50
2023-02-07T22:59:46.049Z,102621.34
2023-02-07T23:02:16.526Z,102583.63
2023-02-07T23:04:45.718Z,102612.34
2023-02-07T23:07:16.230Z,102607.19
2023-02-07T23:09:44.724Z,102620.34
2023-02-07T23:12:15.966Z,102607.59
2023-02-07T23:14:46.539Z,102598.06
2023-02-07T23:17:16.469Z,102604.59
2023-02-07T23:19:46.985Z,102610.50
2023-02-07T23:22:18.000Z,102613.88
2023-02-07T23:24:47.440Z,102607.66
2023-02-07T23:27:16.326Z,102624.94
2023-02-07T23:29:44.455Z,102617.75
2023-02-07T23:32:13.246Z,102620.84
2023-02-07T23:34:43.119Z,102618.78
2023-02-07T23:37:12.547Z,102613.94
2023-02-07T23:39:42.891Z,102619.97
2023-02-07T23:42:12.725Z,102623.84
2023-02-07T23:44:42.261Z,102623.06
2023-02-07T23:47:10.608Z,102629.16
2023-02-07T23:49:41.062Z,102598.91
2023-02-07T23:52:14.815Z,102613.66
2023-02-07T23:54:43.636Z,102620.78
2023-02-07T23:57:15.215Z,102610.16
2023-02-07T23:59:46.024Z,102616.63
